sensor_id;sensor_type;location;lat;lon;timestamp;pressure;altitude;pressure_sealevel;temperature;humidity
10167;BME280;62970;53.130;8.244;2023-05-10T00:00:42;100753.31;;;14.57;70.35
10167;BME280;62970;53.130;8.244;2023-05-10T00:03:12;100750.75;;;14.55;70.46
10167;BME280;62970;53.130;8.244;2023-05-10T00:05:44;100749.91;;;14.55;70.60
10167;BME280;62970;53.130;8.244;2023-05-10T00:08:13;100744.66;;;14.55;70.14
10167;BME280;62970;53.130;8.244;2023-05-10T00:10:43;100746.53;;;14.51;70.62
10167;BME280;62970;53.130;8.244;2023-05-10T00:13:14;100741.34;;;14.50;70.76
10167;BME280;62970;53.130;8.244;2023-05-10T00:15:46;100742.28;;;14.49;70.51
10167;BME280;62970;53.130;8.244;2023-05-10T00:18:16;100739.66;;;14.49;70.63
10167;BME280;62970;53.130;8.244;2023-05-10T00:20:49;100742.34;;;14.47;70.75
10167;BME280;62970;53.130;8.244;2023-05-10T00:23:18;100741.28;;;14.51;70.90
10167;BME280;62970;53.130;8.244;2023-05-10T00:25:47;100739.47;;;14.53;71.10
10167;BME280;62970;53.130;8.244;2023-05-10T00:28:17;100734.09;;;14.56;71.23
10167;BME280;62970;53.130;8.244;2023-05-10T00:30:46;100734.03;;;14.58;70.98
10167;BME280;62970;53.130;8.244;2023-05-10T00:33:16;100727.81;;;14.60;71.13
10167;BME280;62970;53.130;8.244;2023-05-10T00:35:48;100725.13;;;14.62;71.52
10167;BME280;62970;53.130;8.244;2023-05-10T00:38:18;100733.72;;;14.65;71.36
10167;BME280;62970;53.130;8.244;2023-05-10T00:40:48;100737.22;;;14.66;71.19
10167;BME280;62970;53.130;8.244;2023-05-10T00:43:17;100726.66;;;14.67;71.34
10167;BME280;62970;53.130;8.244;2023-05-10T00:45:47;100725.81;;;14.67;71.43
10167;BME280;62970;53.130;8.244;2023-05-10T00:48:17;100723.22;;;14.65;71.72
10167;BME280;62970;53.130;8.244;2023-05-10T00:50:50;100711.06;;;14.63;71.73
10167;BME280;62970;53.130;8.244;2023-05-10T00:53:20;100703.28;;;14.61;71.61
10167;BME280;62970;53.130;8.244;2023-05-10T00:55:49;100712.91;;;14.61;71.74
10167;BME280;62970;53.130;8.244;2023-05-10T00:58:19;100699.84;;;14.59;72.04
10167;BME280;62970;53.130;8.244;2023-05-10T01:00:50;100699.13;;;14.56;71.56
10167;BME280;62970;53.130;8.244;2023-05-10T01:03:20;100700.97;;;14.54;71.24
10167;BME280;62970;53.130;8.244;2023-05-10T01:05:52;100695.91;;;14.49;71.31
10167;BME280;62970;53.130;8.244;2023-05-10T01:08:22;100696.88;;;14.47;71.45
10167;BME280;62970;53.130;8.244;2023-05-10T01:10:51;100693.47;;;14.45;71.46
10167;BME280;62970;53.130;8.244;2023-05-10T01:13:31;100690.19;;;14.40;71.54
10167;BME280;62970;53.130;8.244;2023-05-10T01:16:02;100691.94;;;14.39;71.72
10167;BME280;62970;53.130;8.244;2023-05-10T01:18:36;100693.78;;;14.37;71.57
10167;BME280;62970;53.130;8.244;2023-05-10T01:21:22;100695.59;;;14.35;71.42
10167;BME280;62970;53.130;8.244;2023-05-10T01:28:06;100691.53;;;14.28;71.07
10167;BME280;62970;53.130;8.244;2023-05-10T01:31:08;100692.56;;;14.24;71.27
10167;BME280;62970;53.130;8.244;2023-05-10T01:33:56;100702.31;;;14.20;71.43
10167;BME280;62970;53.130;8.244;2023-05-10T01:36:32;100690.13;;;14.19;71.78
10167;BME280;62970;53.130;8.244;2023-05-10T01:39:15;100693.59;;;14.20;71.91
10167;BME280;62970;53.130;8.244;2023-05-10T01:41:52;100694.44;;;14.20;71.67
10167;BME280;62970;53.130;8.244;2023-05-10T01:44:31;100697.00;;;14.22;72.07
10167;BME280;62970;53.130;8.244;2023-05-10T01:47:07;100690.91;;;14.21;71.99
10167;BME280;62970;53.130;8.244;2023-05-10T01:49:45;100695.31;;;14.21;71.64
10167;BME280;62970;53.130;8.244;2023-05-10T01:52:22;100687.50;;;14.19;71.83
10167;BME280;62970;53.130;8.244;2023-05-10T01:55:02;100685.91;;;14.15;71.82
10167;BME280;62970;53.130;8.244;2023-05-10T01:57:35;100679.03;;;14.13;71.51
10167;BME280;62970;53.130;8.244;2023-05-10T02:00:08;100683.41;;;14.12;71.71
10167;BME280;62970;53.130;8.244;2023-05-10T02:02:41;100681.72;;;14.11;72.30
10167;BME280;62970;53.130;8.244;2023-05-10T02:05:16;100682.56;;;14.12;72.34
10167;BME280;62970;53.130;8.244;2023-05-10T02:07:49;100686.09;;;14.11;72.37
10167;BME280;62970;53.130;8.244;2023-05-10T02:10:21;100686.09;;;14.11;72.06
10167;BME280;62970;53.130;8.244;2023-05-10T02:12:54;100686.16;;;14.09;72.42
10167;BME280;62970;53.130;8.244;2023-05-10T02:15:27;100694.03;;;14.09;72.37
10167;BME280;62970;53.130;8.244;2023-05-10T02:17:58;100693.16;;;14.09;72.81
10167;BME280;62970;53.130;8.244;2023-05-10T02:20:32;100695.78;;;14.09;72.77
10167;BME280;62970;53.130;8.244;2023-05-10T02:23:04;100695.84;;;14.07;72.35
10167;BME280;62970;53.130;8.244;2023-05-10T02:25:34;100692.38;;;14.07;72.52
10167;BME280;62970;53.130;8.244;2023-05-10T02:28:06;100693.28;;;14.06;72.40
10167;BME280;62970;53.130;8.244;2023-05-10T02:30:37;100693.28;;;14.06;72.77
10167;BME280;62970;53.130;8.244;2023-05-10T02:33:07;100700.31;;;14.05;72.46
10167;BME280;62970;53.130;8.244;2023-05-10T02:35:40;100698.47;;;14.07;72.76
10167;BME280;62970;53.130;8.244;2023-05-10T02:38:11;100694.94;;;14.08;73.06
10167;BME280;62970;53.130;8.244;2023-05-10T02:40:43;100689.63;;;14.10;72.54
10167;BME280;62970;53.130;8.244;2023-05-10T02:43:15;100686.94;;;14.11;72.71
10167;BME280;62970;53.130;8.244;2023-05-10T02:45:47;100686.09;;;14.11;73.07
10167;BME280;62970;53.130;8.244;2023-05-10T02:48:17;100703.47;;;14.13;72.84
10167;BME280;62970;53.130;8.244;2023-05-10T02:50:52;100698.22;;;14.13;72.43
10167;BME280;62970;53.130;8.244;2023-05-10T02:53:30;100689.50;;;14.13;72.61
10167;BME280;62970;53.130;8.244;2023-05-10T02:56:05;100692.06;;;14.14;72.75
10167;BME280;62970;53.130;8.244;2023-05-10T02:58:35;100692.13;;;14.13;72.86
10167;BME280;62970;53.130;8.244;2023-05-10T03:01:05;100686.03;;;14.12;73.18
10167;BME280;62970;53.130;8.244;2023-05-10T03:03:34;100686.94;;;14.11;72.81
10167;BME280;62970;53.130;8.244;2023-05-10T03:06:07;100674.75;;;14.10;73.16
10167;BME280;62970;53.130;8.244;2023-05-10T03:08:36;100687.00;;;14.10;72.73
10167;BME280;62970;53.130;8.244;2023-05-10T03:11:23;100689.69;;;14.08;73.35
10167;BME280;62970;53.130;8.244;2023-05-10T03:14:09;100689.63;;;14.10;73.35
10167;BME280;62970;53.130;8.244;2023-05-10T03:16:45;100688.66;;;14.12;73.58
10167;BME280;62970;53.130;8.244;2023-05-10T03:19:22;100684.28;;;14.13;73.47
10167;BME280;62970;53.130;8.244;2023-05-10T03:21:59;100681.66;;;14.13;73.03
10167;BME280;62970;53.130;8.244;2023-05-10T03:24:35;100684.28;;;14.13;72.95
10167;BME280;62970;53.130;8.244;2023-05-10T03:27:06;100678.13;;;14.14;73.31
10167;BME280;62970;53.130;8.244;2023-05-10T03:29:37;100685.06;;;14.15;73.62
10167;BME280;62970;53.130;8.244;2023-05-10T03:32:07;100692.81;;;14.18;73.42
10167;BME280;62970;53.130;8.244;2023-05-10T03:34:41;100684.09;;;14.17;73.42
10167;BME280;62970;53.130;8.244;2023-05-10T03:37:14;100690.19;;;14.18;73.44
10167;BME280;62970;53.130;8.244;2023-05-10T03:39:44;100689.28;;;14.19;73.47
10167;BME280;62970;53.130;8.244;2023-05-10T03:42:13;100684.94;;;14.18;73.47
10167;BME280;62970;53.130;8.244;2023-05-10T03:44:44;100696.28;;;14.18;73.17
10167;BME280;62970;53.130;8.244;2023-05-10T03:47:15;100692.94;;;14.15;73.29
10167;BME280;62970;53.130;8.244;2023-05-10T03:49:47;100695.63;;;14.13;72.81
10167;BME280;62970;53.130;8.244;2023-05-10T03:52:19;100690.56;;;14.09;72.57
10167;BME280;62970;53.130;8.244;2023-05-10T03:54:49;100696.75;;;14.06;73.10
10167;BME280;62970;53.130;8.244;2023-05-10T03:57:18;100696.94;;;14.01;72.93
10167;BME280;62970;53.130;8.244;2023-05-10T03:59:47;100702.19;;;14.01;73.16
10167;BME280;62970;53.130;8.244;2023-05-10T04:02:16;100700.53;;;13.99;72.98
10167;BME280;62970;53.130;8.244;2023-05-10T04:04:46;100697.97;;;13.97;73.07
10167;BME280;62970;53.130;8.244;2023-05-10T04:07:18;100697.19;;;13.95;73.21
10167;BME280;62970;53.130;8.244;2023-05-10T04:09:47;100692.91;;;13.93;73.27
10167;BME280;62970;53.130;8.244;2023-05-10T04:12:17;100689.56;;;13.89;72.90
10167;BME280;62970;53.130;8.244;2023-05-10T04:14:46;100691.50;;;13.84;72.98
10167;BME280;62970;53.130;8.244;2023-05-10T04:17:16;100690.81;;;13.79;72.86
10167;BME280;62970;53.130;8.244;2023-05-10T04:19:45;100690.94;;;13.76;73.24
10167;BME280;62970;53.130;8.244;2023-05-10T04:22:14;100690.25;;;13.71;72.72
10167;BME280;62970;53.130;8.244;2023-05-10T04:24:46;100705.25;;;13.67;72.59
10167;BME280;62970;53.130;8.244;2023-05-10T04:27:16;100700.97;;;13.65;73.22
10167;BME280;62970;53.130;8.244;2023-05-10T04:29:45;100698.38;;;13.63;73.23
10167;BME280;62970;53.130;8.244;2023-05-10T04:32:15;100692.41;;;13.60;73.24
10167;BME280;62970;53.130;8.244;2023-05-10T04:34:46;100701.16;;;13.59;73.57
10167;BME280;62970;53.130;8.244;2023-05-10T04:37:16;100695.06;;;13.58;73.39
10167;BME280;62970;53.130;8.244;2023-05-10T04:39:49;100694.34;;;13.55;73.11
10167;BME280;62970;53.130;8.244;2023-05-10T04:42:19;100713.47;;;13.57;73.49
10167;BME280;62970;53.130;8.244;2023-05-10T04:44:48;100713.47;;;13.57;73.28
10167;BME280;62970;53.130;8.244;2023-05-10T04:47:18;100710.03;;;13.55;73.83
10167;BME280;62970;53.130;8.244;2023-05-10T04:49:50;100715.19;;;13.58;73.95
10167;BME280;62970;53.130;8.244;2023-05-10T04:52:20;100713.34;;;13.60;73.80
10167;BME280;62970;53.130;8.244;2023-05-10T04:54:54;100722.00;;;13.62;73.98
10167;BME280;62970;53.130;8.244;2023-05-10T04:57:23;100721.94;;;13.65;73.91
10167;BME280;62970;53.130;8.244;2023-05-10T04:59:52;100724.50;;;13.66;74.29
10167;BME280;62970;53.130;8.244;2023-05-10T05:02:22;100725.34;;;13.67;73.77
10167;BME280;62970;53.130;8.244;2023-05-10T05:04:51;100728.81;;;13.67;73.86
10167;BME280;62970;53.130;8.244;2023-05-10T05:07:20;100741.06;;;13.67;73.70
10167;BME280;62970;53.130;8.244;2023-05-10T05:09:53;100741.13;;;13.65;73.23
10167;BME280;62970;53.130;8.244;2023-05-10T05:12:23;100745.53;;;13.63;73.07
10167;BME280;62970;53.130;8.244;2023-05-10T05:14:52;100746.56;;;13.59;73.32
10167;BME280;62970;53.130;8.244;2023-05-10T05:17:21;100745.75;;;13.57;73.17
10167;BME280;62970;53.130;8.244;2023-05-10T05:19:50;100752.81;;;13.55;73.31
10167;BME280;62970;53.130;8.244;2023-05-10T05:22:19;100747.63;;;13.54;73.30
10167;BME280;62970;53.130;8.244;2023-05-10T05:24:56;100753.09;;;13.48;73.19
10167;BME280;62970;53.130;8.244;2023-05-10T05:27:28;100754.09;;;13.44;72.84
10167;BME280;62970;53.130;8.244;2023-05-10T05:29:58;100756.84;;;13.40;73.07
10167;BME280;62970;53.130;8.244;2023-05-10T05:32:28;100759.50;;;13.39;73.11
10167;BME280;62970;53.130;8.244;2023-05-10T05:34:57;100765.66;;;13.38;73.10
10167;BME280;62970;53.130;8.244;2023-05-10T05:37:28;100763.03;;;13.38;73.17
10167;BME280;62970;53.130;8.244;2023-05-10T05:40:01;100769.13;;;13.38;73.26
10167;BME280;62970;53.130;8.244;2023-05-10T05:42:31;100774.25;;;13.42;73.24
10167;BME280;62970;53.130;8.244;2023-05-10T05:45:01;100772.50;;;13.42;73.39
10167;BME280;62970;53.130;8.244;2023-05-10T05:47:34;100770.72;;;13.43;73.11
10167;BME280;62970;53.130;8.244;2023-05-10T05:50:05;100770.69;;;13.44;73.08
10167;BME280;62970;53.130;8.244;2023-05-10T05:52:35;100775.00;;;13.45;73.20
10167;BME280;62970;53.130;8.244;2023-05-10T05:55:08;100779.28;;;13.48;73.79
10167;BME280;62970;53.130;8.244;2023-05-10T05:57:37;100778.22;;;13.53;73.72
10167;BME280;62970;53.130;8.244;2023-05-10T06:00:09;100779.00;;;13.55;73.46
10167;BME280;62970;53.130;8.244;2023-05-10T06:02:38;100782.31;;;13.60;73.83
10167;BME280;62970;53.130;8.244;2023-05-10T06:05:08;100781.31;;;13.64;73.77
10167;BME280;62970;53.130;8.244;2023-05-10T06:07:40;100788.13;;;13.70;73.69
10167;BME280;62970;53.130;8.244;2023-05-10T06:10:12;100787.94;;;13.75;73.61
10167;BME280;62970;53.130;8.244;2023-05-10T06:12:42;100787.03;;;13.76;73.96
10167;BME280;62970;53.130;8.244;2023-05-10T06:15:12;100783.41;;;13.80;73.62
10167;BME280;62970;53.130;8.244;2023-05-10T06:17:41;100782.44;;;13.82;73.87
10167;BME280;62970;53.130;8.244;2023-05-10T06:20:13;100788.41;;;13.86;73.54
10167;BME280;62970;53.130;8.244;2023-05-10T06:22:42;100796.09;;;13.90;73.58
10167;BME280;62970;53.130;8.244;2023-05-10T06:25:15;100797.69;;;13.94;73.30
10167;BME280;62970;53.130;8.244;2023-05-10T06:27:44;100803.69;;;13.98;73.44
10167;BME280;62970;53.130;8.244;2023-05-10T06:30:14;100800.03;;;14.02;73.19
10167;BME280;62970;53.130;8.244;2023-05-10T06:32:47;100809.44;;;14.08;73.54
10167;BME280;62970;53.130;8.244;2023-05-10T06:35:17;100812.75;;;14.13;73.24
10167;BME280;62970;53.130;8.244;2023-05-10T06:37:47;100817.69;;;14.20;73.49
